sensor_id;sensor_type;location;lat;lon;timestamp;pressure;altitude;pressure_sealevel;temperature;humidity
22047;BME280;11187;49.412;20.956;2022-11-20T00:01:26;94644.13;;;-3.54;100.00
22047;BME280;11187;49.412;20.956;2022-11-20T00:03:59;94646.63;;;-3.54;100.00
22047;BME280;11187;49.412;20.956;2022-11-20T00:06:53;94633.22;;;-3.58;100.00
22047;BME280;11187;49.412;20.956;2022-11-20T00:09:26;94623.97;;;-3.61;100.00
22047;BME280;11187;49.412;20.956;2022-11-20T00:12:20;94626.34;;;-3.65;100.00
22047;BME280;11187;49.412;20.956;2022-11-20T00:15:14;94625.47;;;-3.67;100.00
22047;BME280;11187;49.412;20.956;2022-11-20T00:17:47;94636.25;;;-3.68;100.00
22047;BME280;11187;49.412;20.956;2022-11-20T00:20:41;94634.53;;;-3.71;100.00
22047;BME280;11187;49.412;20.956;2022-11-20T00:23:35;94634.53;;;-3.71;100.00
22047;BME280;11187;49.412;20.956;2022-11-20T00:26:12;94634.44;;;-3.74;100.00
22047;BME280;11187;49.412;20.956;2022-11-20T00:29:00;94626.84;;;-3.77;100.00
22047;BME280;11187;49.412;20.956;2022-11-20T00:31:34;94631.00;;;-3.78;100.00
22047;BME280;11187;49.412;20.956;2022-11-20T00:34:21;94639.25;;;-3.80;100.00
22047;BME280;11187;49.412;20.956;2022-11-20T00:37:01;94640.94;;;-3.81;100.00
22047;BME280;11187;49.412;20.956;2022-11-20T00:39:55;94636.75;;;-3.80;100.00
22047;BME280;11187;49.412;20.956;2022-11-20T00:42:49;94634.25;;;-3.80;100.00
22047;BME280;11187;49.412;20.956;2022-11-20T00:45:43;94630.09;;;-3.80;100.00
22047;BME280;11187;49.412;20.956;2022-11-20T00:48:16;94631.00;;;-3.78;100.00
22047;BME280;11187;49.412;20.956;2022-11-20T00:51:03;94635.16;;;-3.78;100.00
22047;BME280;11187;49.412;20.956;2022-11-20T00:53:37;94646.91;;;-3.75;100.00
22047;BME280;11187;49.412;20.956;2022-11-20T00:56:31;94648.81;;;-3.67;100.00
22047;BME280;11187;49.412;20.956;2022-11-20T00:59:25;94653.94;;;-3.62;100.00
22047;BME280;11187;49.412;20.956;2022-11-20T01:01:58;94653.88;;;-3.65;100.00
22047;BME280;11187;49.412;20.956;2022-11-20T01:04:45;94662.16;;;-3.66;100.00
22047;BME280;11187;49.412;20.956;2022-11-20T01:07:18;94662.22;;;-3.65;100.00
22047;BME280;11187;49.412;20.956;2022-11-20T01:10:05;94671.47;;;-3.62;100.00
22047;BME280;11187;49.412;20.956;2022-11-20T01:12:38;94670.63;;;-3.61;100.00
22047;BME280;11187;49.412;20.956;2022-11-20T01:15:45;94676.47;;;-3.62;100.00
22047;BME280;11187;49.412;20.956;2022-11-20T01:18:21;94673.75;;;-3.70;100.00
22047;BME280;11187;49.412;20.956;2022-11-20T01:21:25;94672.88;;;-3.70;100.00
22047;BME280;11187;49.412;20.956;2022-11-20T01:24:00;94678.06;;;-3.64;100.00
22047;BME280;11187;49.412;20.956;2022-11-20T01:26:49;94683.97;;;-3.62;100.00
22047;BME280;11187;49.412;20.956;2022-11-20T01:29:23;94678.13;;;-3.63;100.00
22047;BME280;11187;49.412;20.956;2022-11-20T01:32:18;94665.50;;;-3.66;100.00
22047;BME280;11187;49.412;20.956;2022-11-20T01:35:12;94656.38;;;-3.65;100.00
22047;BME280;11187;49.412;20.956;2022-11-20T01:37:45;94651.38;;;-3.65;100.00
22047;BME280;11187;49.412;20.956;2022-11-20T01:40:32;94644.78;;;-3.62;100.00
22047;BME280;11187;49.412;20.956;2022-11-20T01:43:18;94638.16;;;-3.60;100.00
22047;BME280;11187;49.412;20.956;2022-11-20T01:51:45;94620.66;;;-3.60;100.00
22047;BME280;11187;49.412;20.956;2022-11-20T01:54:25;94614.88;;;-3.59;100.00
22047;BME280;11187;49.412;20.956;2022-11-20T01:57:15;94617.50;;;-3.52;100.00
22047;BME280;11187;49.412;20.956;2022-11-20T01:59:54;94604.97;;;-3.54;100.00
22047;BME280;11187;49.412;20.956;2022-11-20T02:02:47;94615.81;;;-3.53;100.00
22047;BME280;11187;49.412;20.956;2022-11-20T02:05:35;94617.50;;;-3.52;100.00
22047;BME280;11187;49.412;20.956;2022-11-20T02:08:25;94618.44;;;-3.49;100.00
22047;BME280;11187;49.412;20.956;2022-11-20T02:10:58;94631.16;;;-3.41;100.00
22047;BME280;11187;49.412;20.956;2022-11-20T02:13:52;94624.53;;;-3.39;100.00
22047;BME280;11187;49.412;20.956;2022-11-20T02:16:48;94627.88;;;-3.39;100.00
22047;BME280;11187;49.412;20.956;2022-11-20T02:19:42;94629.59;;;-3.38;100.00
22047;BME280;11187;49.412;20.956;2022-11-20T02:22:29;94624.66;;;-3.36;100.00
22047;BME280;11187;49.412;20.956;2022-11-20T02:25:24;94613.81;;;-3.35;100.00
22047;BME280;11187;49.412;20.956;2022-11-20T02:28:20;94609.53;;;-3.39;100.00
22047;BME280;11187;49.412;20.956;2022-11-20T02:30:53;94600.34;;;-3.39;100.00
22047;BME280;11187;49.412;20.956;2022-11-20T02:33:40;94601.06;;;-3.44;100.00
22047;BME280;11187;49.412;20.956;2022-11-20T02:36:15;94596.09;;;-3.43;100.00
22047;BME280;11187;49.412;20.956;2022-11-20T02:39:03;94601.06;;;-3.44;100.00
22047;BME280;11187;49.412;20.956;2022-11-20T02:41:57;94612.69;;;-3.46;100.00
22047;BME280;11187;49.412;20.956;2022-11-20T02:44:51;94613.53;;;-3.46;100.00
22047;BME280;11187;49.412;20.956;2022-11-20T02:47:24;94615.22;;;-3.45;100.00
22047;BME280;11187;49.412;20.956;2022-11-20T02:50:18;94612.78;;;-3.42;100.00
22047;BME280;11187;49.412;20.956;2022-11-20T02:52:51;94603.50;;;-3.46;100.00
22047;BME280;11187;49.412;20.956;2022-11-20T02:55:45;94597.72;;;-3.45;100.00
22047;BME280;11187;49.412;20.956;2022-11-20T02:58:39;94588.53;;;-3.44;100.00
22047;BME280;11187;49.412;20.956;2022-11-20T03:01:33;94581.00;;;-3.46;100.00
22047;BME280;11187;49.412;20.956;2022-11-20T03:04:06;94573.41;;;-3.49;100.00
22047;BME280;11187;49.412;20.956;2022-11-20T03:06:53;94581.69;;;-3.51;100.00
22047;BME280;11187;49.412;20.956;2022-11-20T03:09:26;94586.56;;;-3.56;100.00
22047;BME280;11187;49.412;20.956;2022-11-20T03:12:13;94590.69;;;-3.57;100.00
22047;BME280;11187;49.412;20.956;2022-11-20T03:14:46;94584.13;;;-3.53;100.00
22047;BME280;11187;49.412;20.956;2022-11-20T03:17:33;94574.97;;;-3.52;100.00
22047;BME280;11187;49.412;20.956;2022-11-20T03:20:07;94580.75;;;-3.55;100.00
22047;BME280;11187;49.412;20.956;2022-11-20T03:22:54;94575.69;;;-3.57;100.00
22047;BME280;11187;49.412;20.956;2022-11-20T03:25:27;94571.47;;;-3.59;100.00
22047;BME280;11187;49.412;20.956;2022-11-20T03:28:21;94563.75;;;-3.67;100.00
22047;BME280;11187;49.412;20.956;2022-11-20T03:31:18;94561.09;;;-3.73;100.00
22047;BME280;11187;49.412;20.956;2022-11-20T03:33:52;94546.00;;;-3.76;100.00
22047;BME280;11187;49.412;20.956;2022-11-20T03:36:40;94545.88;;;-3.81;100.00
22047;BME280;11187;49.412;20.956;2022-11-20T03:39:13;94555.06;;;-3.80;100.00
22047;BME280;11187;49.412;20.956;2022-11-20T03:42:00;94555.00;;;-3.83;100.00
22047;BME280;11187;49.412;20.956;2022-11-20T03:44:33;94554.09;;;-3.85;100.00
22047;BME280;11187;49.412;20.956;2022-11-20T03:47:20;94540.72;;;-3.87;100.00
22047;BME280;11187;49.412;20.956;2022-11-20T03:49:53;94538.22;;;-3.87;100.00
22047;BME280;11187;49.412;20.956;2022-11-20T03:52:40;94540.75;;;-3.85;100.00
22047;BME280;11187;49.412;20.956;2022-11-20T03:55:13;94551.53;;;-3.88;100.00
22047;BME280;11187;49.412;20.956;2022-11-20T03:58:00;94545.59;;;-3.91;100.00
22047;BME280;11187;49.412;20.956;2022-11-20T04:00:33;94551.44;;;-3.91;100.00
22047;BME280;11187;49.412;20.956;2022-11-20T04:03:20;94548.19;;;-3.88;100.00
22047;BME280;11187;49.412;20.956;2022-11-20T04:05:53;94549.81;;;-3.89;100.00
22047;BME280;11187;49.412;20.956;2022-11-20T04:08:40;94543.13;;;-3.90;100.00
22047;BME280;11187;49.412;20.956;2022-11-20T04:11:22;94542.25;;;-3.92;100.00
22047;BME280;11187;49.412;20.956;2022-11-20T04:14:16;94545.53;;;-3.93;100.00
22047;BME280;11187;49.412;20.956;2022-11-20T04:16:49;94553.91;;;-3.92;100.00
22047;BME280;11187;49.412;20.956;2022-11-20T04:19:36;94556.31;;;-3.95;100.00
22047;BME280;11187;49.412;20.956;2022-11-20T04:22:09;94547.91;;;-3.97;100.00
22047;BME280;11187;49.412;20.956;2022-11-20T04:24:56;94547.06;;;-3.98;100.00
22047;BME280;11187;49.412;20.956;2022-11-20T04:27:30;94552.06;;;-3.98;100.00
22047;BME280;11187;49.412;20.956;2022-11-20T04:30:24;94562.06;;;-4.00;100.00
22047;BME280;11187;49.412;20.956;2022-11-20T04:32:57;94555.34;;;-4.01;100.00
22047;BME280;11187;49.412;20.956;2022-11-20T04:35:46;94559.44;;;-4.03;100.00
22047;BME280;11187;49.412;20.956;2022-11-20T04:38:20;94556.94;;;-4.04;100.00
22047;BME280;11187;49.412;20.956;2022-11-20T04:41:09;94560.41;;;-3.97;100.00
22047;BME280;11187;49.412;20.956;2022-11-20T04:43:47;94559.75;;;-3.92;100.00
22047;BME280;11187;49.412;20.956;2022-11-20T04:46:40;94548.91;;;-3.92;100.00
22047;BME280;11187;49.412;20.956;2022-11-20T04:49:14;94564.69;;;-3.93;100.00
22047;BME280;11187;49.412;20.956;2022-11-20T04:52:01;94562.19;;;-3.93;100.00
22047;BME280;11187;49.412;20.956;2022-11-20T04:54:34;94556.34;;;-3.94;100.00
22047;BME280;11187;49.412;20.956;2022-11-20T04:57:21;94553.16;;;-3.90;100.00
22047;BME280;11187;49.412;20.956;2022-11-20T04:59:54;94558.94;;;-3.91;100.00
22047;BME280;11187;49.412;20.956;2022-11-20T05:02:41;94563.09;;;-3.91;100.00
22047;BME280;11187;49.412;20.956;2022-11-20T05:05:14;94556.41;;;-3.92;100.00
22047;BME280;11187;49.412;20.956;2022-11-20T05:08:01;94558.94;;;-3.91;100.00
22047;BME280;11187;49.412;20.956;2022-11-20T05:10:34;94558.09;;;-3.91;100.00
22047;BME280;11187;49.412;20.956;2022-11-20T05:13:21;94548.03;;;-3.93;100.00
22047;BME280;11187;49.412;20.956;2022-11-20T05:15:54;94538.84;;;-3.94;100.00
22047;BME280;11187;49.412;20.956;2022-11-20T05:18:41;94532.19;;;-3.95;100.00
22047;BME280;11187;49.412;20.956;2022-11-20T05:21:15;94522.16;;;-3.95;100.00
22047;BME280;11187;49.412;20.956;2022-11-20T05:24:02;94512.19;;;-3.93;100.00
22047;BME280;11187;49.412;20.956;2022-11-20T05:26:35;94518.09;;;-3.91;100.00
22047;BME280;11187;49.412;20.956;2022-11-20T05:29:29;94524.69;;;-3.93;100.00
22047;BME280;11187;49.412;20.956;2022-11-20T05:32:02;94536.28;;;-3.97;100.00
22047;BME280;11187;49.412;20.956;2022-11-20T05:34:49;94538.84;;;-3.94;100.00
22047;BME280;11187;49.412;20.956;2022-11-20T05:37:22;94543.84;;;-3.94;100.00
22047;BME280;11187;49.412;20.956;2022-11-20T05:40:09;94547.13;;;-3.96;100.00
22047;BME280;11187;49.412;20.956;2022-11-20T05:43:03;94548.81;;;-3.95;100.00
22047;BME280;11187;49.412;20.956;2022-11-20T05:45:57;94552.97;;;-3.96;100.00
22047;BME280;11187;49.412;20.956;2022-11-20T05:48:51;94557.06;;;-4.00;100.00
22047;BME280;11187;49.412;20.956;2022-11-20T05:51:45;94544.50;;;-4.01;100.00
22047;BME280;11187;49.412;20.956;2022-11-20T05:54:18;94536.16;;;-4.02;100.00
22047;BME280;11187;49.412;20.956;2022-11-20T05:57:05;94529.44;;;-4.04;100.00
22047;BME280;11187;49.412;20.956;2022-11-20T05:59:38;94532.00;;;-4.01;100.00
22047;BME280;11187;49.412;20.956;2022-11-20T06:02:25;94530.34;;;-4.01;100.00
22047;BME280;11187;49.412;20.956;2022-11-20T06:04:58;94531.22;;;-3.99;100.00
22047;BME280;11187;49.412;20.956;2022-11-20T06:07:45;94544.56;;;-3.98;100.00
22047;BME280;11187;49.412;20.956;2022-11-20T06:10:18;94542.88;;;-3.99;100.00
22047;BME280;11187;49.412;20.956;2022-11-20T06:13:12;94532.00;;;-4.01;100.00
22047;BME280;11187;49.412;20.956;2022-11-20T06:15:50;94540.28;;;-4.02;100.00
22047;BME280;11187;49.412;20.956;2022-11-20T06:18:37;94543.59;;;-4.03;100.00
22047;BME280;11187;49.412;20.956;2022-11-20T06:21:12;94537.91;;;-3.99;100.00
22047;BME280;11187;49.412;20.956;2022-11-20T06:24:00;94521.28;;;-3.97;100.00
22047;BME280;11187;49.412;20.956;2022-11-20T06:26:33;94520.53;;;-3.93;100.00
22047;BME280;11187;49.412;20.956;2022-11-20T06:29:20;94528.78;;;-3.97;100.00
22047;BME280;11187;49.412;20.956;2022-11-20T06:31:59;94529.50;;;-4.01;100.00
22047;BME280;11187;49.412;20.956;2022-11-20T06:34:46;94540.47;;;-3.96;100.00
22047;BME280;11187;49.412;20.956;2022-11-20T06:37:19;94534.69;;;-3.93;100.00
22047;BME280;11187;49.412;20.956;2022-11-20T06:40:13;94523.97;;;-3.89;100.00
22047;BME280;11187;49.412;20.956;2022-11-20T06:43:10;94514.03;;;-3.88;100.00
22047;BME280;11187;49.412;20.956;2022-11-20T06:46:04;94503.38;;;-3.81;100.00
22047;BME280;11187;49.412;20.956;2022-11-20T06:48:58;94508.44;;;-3.79;100.00
22047;BME280;11187;49.412;20.956;2022-11-20T06:51:52;94510.94;;;-3.79;100.00
22047;BME280;11187;49.412;20.956;2022-11-20T06:54:25;94507.47;;;-3.83;100.00
22047;BME280;11187;49.412;20.956;2022-11-20T06:57:19;94503.41;;;-3.79;100.00
22047;BME280;11187;49.412;20.956;2022-11-20T06:59:52;94496.78;;;-3.77;100.00
22047;BME280;11187;49.412;20.956;2022-11-20T07:02:39;94501.94;;;-3.71;100.00
22047;BME280;11187;49.412;20.956;2022-11-20T07:05:12;94511.31;;;-3.64;100.00
22047;BME280;11187;49.412;20.956;2022-11-20T07:07:59;94503.13;;;-3.57;100.00
22047;BME280;11187;49.412;20.956;2022-11-20T07:10:33;94518.25;;;-3.53;100.00
22047;BME280;11187;49.412;20.956;2022-11-20T07:13:28;94508.31;;;-3.50;100.00
22047;BME280;11187;49.412;20.956;2022-11-20T07:16:22;94501.75;;;-3.47;100.00
22047;BME280;11187;49.412;20.956;2022-11-20T07:18:55;94498.47;;;-3.44;100.00
22047;BME280;11187;49.412;20.956;2022-11-20T07:21:42;94491.09;;;-3.38;100.00
22047;BME280;11187;49.412;20.956;2022-11-20T07:24:15;94497.91;;;-3.32;100.00
22047;BME280;11187;49.412;20.956;2022-11-20T07:27:02;94500.56;;;-3.26;100.00
22047;BME280;11187;49.412;20.956;2022-11-20T07:29:35;94484.84;;;-3.21;100.00
22047;BME280;11187;49.412;20.956;2022-11-20T07:32:22;94481.63;;;-3.15;100.00
22047;BME280;11187;49.412;20.956;2022-11-20T07:34:55;94486.75;;;-3.10;100.00
22047;BME280;11187;49.412;20.956;2022-11-20T07:37:49;94485.25;;;-3.04;100.00
22047;BME280;11187;49.412;20.956;2022-11-20T07:40:43;94487.13;;;-2.95;100.00
22047;BME280;11187;49.412;20.956;2022-11-20T07:43:37;94495.59;;;-2.88;100.00
22047;BME280;11187;49.412;20.956;2022-11-20T07:46:10;94491.59;;;-2.80;100.00
22047;BME280;11187;49.412;20.956;2022-11-20T07:48:57;94487.63;;;-2.72;100.00
22047;BME280;11187;49.412;20.956;2022-11-20T07:51:30;94488.50;;;-2.70;100.00
22047;BME280;11187;49.412;20.956;2022-11-20T07:54:17;94489.50;;;-2.62;100.00
22047;BME280;11187;49.412;20.956;2022-11-20T07:56:50;94486.34;;;-2.53;100.00
22047;BME280;11187;49.412;20.956;2022-11-20T07:59:44;94487.31;;;-2.46;100.00
22047;BME280;11187;49.412;20.956;2022-11-20T08:02:18;94478.19;;;-2.44;100.00
22047;BME280;11187;49.412;20.956;2022-11-20T08:05:12;94482.50;;;-2.37;100.00
22047;BME280;11187;49.412;20.956;2022-11-20T08:07:45;94476.78;;;-2.30;100.00
22047;BME280;11187;49.412;20.956;2022-11-20T08:10:32;94477.75;;;-2.23;100.00
22047;BME280;11187;49.412;20.956;2022-11-20T08:13:05;94484.53;;;-2.19;100.00
22047;BME280;11187;49.412;20.956;2022-11-20T08:16:17;94490.47;;;-2.16;100.00
22047;BME280;11187;49.412;20.956;2022-11-20T08:19:15;94490.44;;;-2.17;100.00
22047;BME280;11187;49.412;20.956;2022-11-20T08:21:49;94500.50;;;-2.14;100.00
22047;BME280;11187;49.412;20.956;2022-11-20T08:24:42;94497.13;;;-2.16;100.00
22047;BME280;11187;49.412;20.956;2022-11-20T08:27:36;94503.09;;;-2.11;100.00
22047;BME280;11187;49.412;20.956;2022-11-20T08:30:10;94500.69;;;-2.05;100.00
22047;BME280;11187;49.412;20.956;2022-11-20T08:33:02;94506.69;;;-1.98;100.00
22047;BME280;11187;49.412;20.956;2022-11-20T08:35:37;94510.84;;;-1.99;100.00
22047;BME280;11187;49.412;20.956;2022-11-20T08:38:31;94515.75;;;-2.05;100.00
22047;BME280;11187;49.412;20.956;2022-11-20T08:41:25;94523.16;;;-2.11;100.00
22047;BME280;11187;49.412;20.956;2022-11-20T08:44:04;94520.56;;;-2.16;100.00
22047;BME280;11187;49.412;20.956;2022-11-20T08:46:51;94523.97;;;-2.12;100.00
22047;BME280;11187;49.412;20.956;2022-11-20T08:49:24;94516.53;;;-2.07;100.00
22047;BME280;11187;49.412;20.956;2022-11-20T08:52:11;94516.66;;;-2.01;100.00
22047;BME280;11187;49.412;20.956;2022-11-20T08:54:44;94519.31;;;-1.95;100.00
22047;BME280;11187;49.412;20.956;2022-11-20T08:57:37;94520.25;;;-1.89;100.00
22047;BME280;11187;49.412;20.956;2022-11-20T09:00:16;94513.66;;;-1.83;100.00
22047;BME280;11187;49.412;20.956;2022-11-20T09:03:10;94498.88;;;-1.70;100.00
22047;BME280;11187;49.412;20.956;2022-11-20T09:05:43;94499.88;;;-1.60;100.00
22047;BME280;11187;49.412;20.956;2022-11-20T09:08:30;94490.91;;;-1.47;100.00
22047;BME280;11187;49.412;20.956;2022-11-20T09:11:04;94483.56;;;-1.35;100.00
22047;BME280;11187;49.412;20.956;2022-11-20T09:13:58;94470.38;;;-1.23;100.00
22047;BME280;11187;49.412;20.956;2022-11-20T09:16:52;94473.06;;;-1.12;100.00
22047;BME280;11187;49.412;20.956;2022-11-20T09:19:46;94473.25;;;-1.00;100.00
22047;BME280;11187;49.412;20.956;2022-11-20T09:22:40;94471.69;;;-0.92;100.00
22047;BME280;11187;49.412;20.956;2022-11-20T09:25:13;94471.72;;;-0.89;100.00
22047;BME280;11187;49.412;20.956;2022-11-20T09:28:00;94471.78;;;-0.86;100.00
22047;BME280;11187;49.412;20.956;2022-11-20T09:30:33;94478.63;;;-0.75;100.00
22047;BME280;11187;49.412;20.956;2022-11-20T09:33:27;94492.19;;;-0.66;100.00
22047;BME280;11187;49.412;20.956;2022-11-20T09:36:21;94484.72;;;-0.59;100.00
22047;BME280;11187;49.412;20.956;2022-11-20T09:38:54;94483.97;;;-0.52;100.00
22047;BME280;11187;49.412;20.956;2022-11-20T09:50:23;94470.06;;;-0.27;100.00
22047;BME280;11187;49.412;20.956;2022-11-20T09:56:34;94450.00;;;-0.21;100.00
22047;BME280;11187;49.412;20.956;2022-11-20T09:59:42;94461.81;;;-0.17;100.00
22047;BME280;11187;49.412;20.956;2022-11-20T10:02:37;94460.16;;;-0.15;100.00
22047;BME280;11187;49.412;20.956;2022-11-20T10:05:19;94448.44;;;-0.13;100.00
22047;BME280;11187;49.412;20.956;2022-11-20T10:08:39;94439.22;;;-0.12;100.00
22047;BME280;11187;49.412;20.956;2022-11-20T10:15:16;94443.38;;;-0.14;100.00
22047;BME280;11187;49.412;20.956;2022-11-20T10:21:58;94455.97;;;-0.14;100.00
22047;BME280;11187;49.412;20.956;2022-11-20T10:25:16;94451.81;;;-0.11;100.00
22047;BME280;11187;49.412;20.956;2022-11-20T10:28:14;94449.41;;;-0.02;100.00
22047;BME280;11187;49.412;20.956;2022-11-20T10:31:12;94439.44;;;0.08;100.00
22047;BME280;11187;49.412;20.956;2022-11-20T10:34:16;94439.50;;;0.14;100.00
22047;BME280;11187;49.412;20.956;2022-11-20T10:37:08;94430.31;;;0.17;100.00
22047;BME280;11187;49.412;20.956;2022-11-20T10:40:01;94425.31;;;0.20;100.00
22047;BME280;11187;49.412;20.956;2022-11-20T10:42:47;94426.16;;;0.24;100.00
22047;BME280;11187;49.412;20.956;2022-11-20T10:45:43;94426.22;;;0.29;100.00
22047;BME280;11187;49.412;20.956;2022-11-20T10:48:26;94418.72;;;0.33;100.00
22047;BME280;11187;49.412;20.956;2022-11-20T10:54:34;94402.00;;;0.41;100.00
22047;BME280;11187;49.412;20.956;2022-11-20T10:57:52;94395.34;;;0.50;100.00
22047;BME280;11187;49.412;20.956;2022-11-20T11:00:48;94387.84;;;0.56;100.00
22047;BME280;11187;49.412;20.956;2022-11-20T11:03:29;94386.22;;;0.62;100.00
22047;BME280;11187;49.412;20.956;2022-11-20T11:06:23;94391.28;;;0.66;100.00
22047;BME280;11187;49.412;20.956;2022-11-20T11:09:10;94399.69;;;0.68;100.00
22047;BME280;11187;49.412;20.956;2022-11-20T11:11:58;94397.22;;;0.72;100.00
22047;BME280;11187;49.412;20.956;2022-11-20T11:14:42;94393.88;;;0.75;100.00
22047;BME280;11187;49.412;20.956;2022-11-20T11:17:31;94388.03;;;0.77;100.00
22047;BME280;11187;49.412;20.956;2022-11-20T11:22:58;94384.69;;;0.80;100.00
22047;BME280;11187;49.412;20.956;2022-11-20T11:25:35;94383.03;;;0.82;100.00
22047;BME280;11187;49.412;20.956;2022-11-20T11:28:22;94382.19;;;0.83;100.00
22047;BME280;11187;49.412;20.956;2022-11-20T11:30:58;94372.94;;;0.83;100.00
22047;BME280;11187;49.412;20.956;2022-11-20T11:33:45;94370.44;;;0.82;100.00
22047;BME280;11187;49.412;20.956;2022-11-20T11:36:26;94377.97;;;0.80;100.00
22047;BME280;11187;49.412;20.956;2022-11-20T11:39:18;94377.09;;;0.78;100.00
22047;BME280;11187;49.412;20.956;2022-11-20T11:42:17;94371.19;;;0.75;100.00
22047;BME280;11187;49.412;20.956;2022-11-20T11:45:14;94375.34;;;0.70;100.00
22047;BME280;11187;49.412;20.956;2022-11-20T11:47:50;94372.81;;;0.67;100.00
22047;BME280;11187;49.412;20.956;2022-11-20T11:50:49;94372.81;;;0.65;100.00
22047;BME280;11187;49.412;20.956;2022-11-20T11:53:43;94377.81;;;0.63;100.00
22047;BME280;11187;49.412;20.956;2022-11-20T11:56:23;94375.31;;;0.63;100.00
22047;BME280;11187;49.412;20.956;2022-11-20T11:59:14;94373.63;;;0.62;100.00
22047;BME280;11187;49.412;20.956;2022-11-20T12:01:58;94379.53;;;0.65;100.00
22047;BME280;11187;49.412;20.956;2022-11-20T12:04:58;94377.03;;;0.66;100.00
22047;BME280;11187;49.412;20.956;2022-11-20T12:07:47;94382.09;;;0.69;100.00
22047;BME280;11187;49.412;20.956;2022-11-20T12:14:11;94376.25;;;0.79;100.00
22047;BME280;11187;49.412;20.956;2022-11-20T12:16:46;94383.00;;;0.83;100.00
22047;BME280;11187;49.412;20.956;2022-11-20T12:19:35;94375.50;;;0.90;100.00
22047;BME280;11187;49.412;20.956;2022-11-20T12:25:22;94365.47;;;0.97;100.00
22047;BME280;11187;49.412;20.956;2022-11-20T12:31:27;94361.31;;;1.06;100.00
22047;BME280;11187;49.412;20.956;2022-11-20T12:34:21;94361.31;;;1.09;100.00
22047;BME280;11187;49.412;20.956;2022-11-20T12:37:33;94356.31;;;1.12;100.00
22047;BME280;11187;49.412;20.956;2022-11-20T12:40:44;94363.03;;;1.16;100.00
22047;BME280;11187;49.412;20.956;2022-11-20T12:44:32;94357.19;;;1.17;100.00
22047;BME280;11187;49.412;20.956;2022-11-20T12:48:03;94353.81;;;1.18;100.00
22047;BME280;11187;49.412;20.956;2022-11-20T12:57:44;94357.19;;;1.20;100.00
22047;BME280;11187;49.412;20.956;2022-11-20T13:00:22;94361.41;;;1.21;100.00
22047;BME280;11187;49.412;20.956;2022-11-20T13:03:47;94351.31;;;1.21;100.00
22047;BME280;11187;49.412;20.956;2022-11-20T13:06:25;94363.09;;;1.22;100.00
22047;BME280;11187;49.412;20.956;2022-11-20T13:09:20;94355.53;;;1.20;100.00
22047;BME280;11187;49.412;20.956;2022-11-20T13:12:33;94350.47;;;1.19;100.00
22047;BME280;11187;49.412;20.956;2022-11-20T13:15:36;94351.31;;;1.16;100.00
22047;BME280;11187;49.412;20.956;2022-11-20T13:18:27;94343.69;;;1.13;100.00
22047;BME280;11187;49.412;20.956;2022-11-20T13:21:00;94337.81;;;1.10;100.00
22047;BME280;11187;49.412;20.956;2022-11-20T13:24:04;94331.09;;;1.07;100.00
22047;BME280;11187;49.412;20.956;2022-11-20T13:29:44;94322.63;;;0.97;100.00
22047;BME280;11187;49.412;20.956;2022-11-20T13:32:47;94312.53;;;0.91;100.00
22047;BME280;11187;49.412;20.956;2022-11-20T13:35:26;94307.44;;;0.88;100.00
22047;BME280;11187;49.412;20.956;2022-11-20T13:38:20;94313.28;;;0.81;100.00
22047;BME280;11187;49.412;20.956;2022-11-20T13:41:01;94318.31;;;0.76;100.00
22047;BME280;11187;49.412;20.956;2022-11-20T13:46:45;94336.72;;;0.66;100.00
22047;BME280;11187;49.412;20.956;2022-11-20T13:49:39;94346.75;;;0.63;100.00
22047;BME280;11187;49.412;20.956;2022-11-20T14:01:23;94371.00;;;0.49;100.00
22047;BME280;11187;49.412;20.956;2022-11-20T14:03:57;94376.88;;;0.46;100.00
22047;BME280;11187;49.412;20.956;2022-11-20T14:06:51;94376.00;;;0.44;100.00
22047;BME280;11187;49.412;20.956;2022-11-20T14:09:53;94380.16;;;0.40;100.00
22047;BME280;11187;49.412;20.956;2022-11-20T14:12:32;94372.56;;;0.36;100.00
22047;BME280;11187;49.412;20.956;2022-11-20T14:18:14;94378.38;;;0.29;100.00
22047;BME280;11187;49.412;20.956;2022-11-20T14:21:04;94368.31;;;0.26;100.00
22047;BME280;11187;49.412;20.956;2022-11-20T14:23:37;94359.88;;;0.22;100.00
22047;BME280;11187;49.412;20.956;2022-11-20T14:26:24;94348.94;;;0.18;100.00
22047;BME280;11187;49.412;20.956;2022-11-20T14:28:57;94362.31;;;0.14;100.00
22047;BME280;11187;49.412;20.956;2022-11-20T14:31:45;94371.53;;;0.12;100.00
22047;BME280;11187;49.412;20.956;2022-11-20T14:34:23;94365.63;;;0.10;100.00
22047;BME280;11187;49.412;20.956;2022-11-20T14:37:17;94369.78;;;0.07;100.00
22047;BME280;11187;49.412;20.956;2022-11-20T14:39:55;94371.44;;;0.03;100.00
22047;BME280;11187;49.412;20.956;2022-11-20T14:42:43;94368.03;;;-0.04;100.00
22047;BME280;11187;49.412;20.956;2022-11-20T14:45:16;94368.00;;;-0.07;100.00
22047;BME280;11187;49.412;20.956;2022-11-20T14:48:11;94362.94;;;-0.11;100.00
22047;BME280;11187;49.412;20.956;2022-11-20T14:51:05;94353.66;;;-0.15;100.00
22047;BME280;11187;49.412;20.956;2022-11-20T14:53:38;94348.56;;;-0.18;100.00
22047;BME280;11187;49.412;20.956;2022-11-20T14:56:25;94361.97;;;-0.21;100.00
22047;BME280;11187;49.412;20.956;2022-11-20T14:58:58;94355.22;;;-0.24;100.00
22047;BME280;11187;49.412;20.956;2022-11-20T15:01:57;94352.69;;;-0.27;100.00
22047;BME280;11187;49.412;20.956;2022-11-20T15:04:31;94361.06;;;-0.29;100.00
22047;BME280;11187;49.412;20.956;2022-11-20T15:07:32;94363.50;;;-0.35;100.00
22047;BME280;11187;49.412;20.956;2022-11-20T15:10:09;94372.66;;;-0.40;100.00
22047;BME280;11187;49.412;20.956;2022-11-20T15:13:04;94370.09;;;-0.45;100.00
22047;BME280;11187;49.412;20.956;2022-11-20T15:15:49;94365.84;;;-0.49;100.00
22047;BME280;11187;49.412;20.956;2022-11-20T15:18:39;94365.03;;;-0.50;100.00
22047;BME280;11187;49.412;20.956;2022-11-20T15:21:19;94361.63;;;-0.50;100.00
22047;BME280;11187;49.412;20.956;2022-11-20T15:24:08;94358.28;;;-0.51;100.00
22047;BME280;11187;49.412;20.956;2022-11-20T15:26:42;94354.09;;;-0.52;100.00